Meteo Giornale » Osservazioni meteo Italia » Brescia-Montichiari

ore: 08:50 - Osservazioni Meteo Brescia-Montichiari
Lat. 45° 24' N Lon. 10° 18' E Alt. 104 metri s.l.m.

sereno Europe/Rome

-1 °C

Sereno

Temp. 24 Ore

-2 °C

9 °C

Nord

3.7 Km/h

Dew point -2 °C

Umidità 92 %

Visibilità  7 Km

Il sole sorge alle ore 07:46

Il sole tramonta alle ore 17:15

Data e Ora Cielo e Fenomeni T °C DP °C Um. % Pres. hPa Vis. km Vento km/h
Oggi h: 08:50 sereno Sereno -1 -2 92 1028 7 N 3.7
Oggi h: 07:50 sereno Sereno -1 -2 92 1027 10 N 0
Oggi h: 06:50 sereno Sereno -2 -2 100 1027 10 N 1.8
Oggi h: 05:50 sereno Sereno -1 -1 100 1027 10 N 5.5
Oggi h: 04:50 sereno Sereno -1 -2 92 1027 10 O/NO 7.4
Oggi h: 03:50 sereno Sereno -0 -1 92 1028 10 N 5.5
Oggi h: 02:50 sereno Sereno -0 -2 86 1028 10 N 5.5
Oggi h: 01:50 sereno Sereno 0 -2 86 1028 10 N 3.7
Ieri h: 23:50 sereno Sereno 1 -1 86 1029 10 N 5.5
Ieri h: 22:50 sereno Sereno 1 -1 86 1030 10 NE 7.4
Ieri h: 21:50 sereno Sereno 2 -1 80 1030 6 N/NE 7.4
Ieri h: 20:50 sereno Sereno 2 -1 80 1030 10 N 5.5
Ieri h: 19:50 sereno Sereno 3 0 80 1030 6 N 5.5
Ieri h: 18:50 sereno Sereno 5 1 75 1030 10 N 3.7
Ieri h: 17:50 sereno Sereno 6 1 70 1030 10 N 0
Ieri h: 16:50 sereno Sereno 8 1 61 1030 10 N 5.5
Ieri h: 14:50 sereno Sereno 9 0 53 1030 10 S/SE 9.3
Ieri h: 13:50 sereno Sereno 9 -0 53 1031 10 N 3.7
Ieri h: 11:50 sereno Sereno 9 -1 49 1032 10 N 1.8
Ieri h: 10:50 sereno Sereno 7 -1 56 1032 10 N 1.8
Ieri h: 09:50 sereno Sereno 4 0 75 1032 10 N/NE 7.4